sensor_id;sensor_type;location;lat;lon;timestamp;P1;durP1;ratioP1;P2;durP2;ratioP2
15153;SDS011;7677;41.896;25.004;2022-12-07T00:01:35;5.40;;;3.27;;
15153;SDS011;7677;41.896;25.004;2022-12-07T00:04:04;4.97;;;3.20;;
15153;SDS011;7677;41.896;25.004;2022-12-07T00:06:31;5.27;;;3.73;;
15153;SDS011;7677;41.896;25.004;2022-12-07T00:08:59;6.47;;;3.60;;
15153;SDS011;7677;41.896;25.004;2022-12-07T00:11:28;6.30;;;4.53;;
15153;SDS011;7677;41.896;25.004;2022-12-07T00:13:56;5.10;;;3.20;;
15153;SDS011;7677;41.896;25.004;2022-12-07T00:16:25;7.57;;;3.70;;
15153;SDS011;7677;41.896;25.004;2022-12-07T00:18:53;5.67;;;3.87;;
15153;SDS011;7677;41.896;25.004;2022-12-07T00:21:21;7.03;;;4.27;;
15153;SDS011;7677;41.896;25.004;2022-12-07T00:23:49;11.80;;;4.97;;
15153;SDS011;7677;41.896;25.004;2022-12-07T00:26:18;8.20;;;4.47;;
15153;SDS011;7677;41.896;25.004;2022-12-07T00:28:48;5.77;;;4.50;;
15153;SDS011;7677;41.896;25.004;2022-12-07T00:31:17;6.23;;;4.23;;
15153;SDS011;7677;41.896;25.004;2022-12-07T00:33:45;7.97;;;4.30;;
15153;SDS011;7677;41.896;25.004;2022-12-07T00:36:13;5.20;;;3.43;;
15153;SDS011;7677;41.896;25.004;2022-12-07T00:38:42;6.23;;;3.80;;
15153;SDS011;7677;41.896;25.004;2022-12-07T00:41:10;5.63;;;3.50;;
15153;SDS011;7677;41.896;25.004;2022-12-07T00:43:39;6.10;;;3.63;;
15153;SDS011;7677;41.896;25.004;2022-12-07T00:46:08;5.00;;;3.47;;
15153;SDS011;7677;41.896;25.004;2022-12-07T00:48:36;6.43;;;3.17;;
15153;SDS011;7677;41.896;25.004;2022-12-07T00:51:04;10.03;;;3.63;;
15153;SDS011;7677;41.896;25.004;2022-12-07T00:53:33;6.77;;;4.17;;
15153;SDS011;7677;41.896;25.004;2022-12-07T00:56:04;9.63;;;3.53;;
15153;SDS011;7677;41.896;25.004;2022-12-07T00:58:32;7.73;;;3.83;;
15153;SDS011;7677;41.896;25.004;2022-12-07T01:01:00;5.70;;;2.87;;
15153;SDS011;7677;41.896;25.004;2022-12-07T01:03:29;8.63;;;3.47;;
15153;SDS011;7677;41.896;25.004;2022-12-07T01:05:56;5.83;;;3.43;;
15153;SDS011;7677;41.896;25.004;2022-12-07T01:08:26;6.30;;;3.33;;
15153;SDS011;7677;41.896;25.004;2022-12-07T01:11:03;4.33;;;3.33;;
15153;SDS011;7677;41.896;25.004;2022-12-07T01:13:32;7.30;;;3.40;;
15153;SDS011;7677;41.896;25.004;2022-12-07T01:16:00;7.53;;;3.60;;
15153;SDS011;7677;41.896;25.004;2022-12-07T01:18:31;5.90;;;4.60;;
15153;SDS011;7677;41.896;25.004;2022-12-07T01:21:00;8.50;;;4.20;;
15153;SDS011;7677;41.896;25.004;2022-12-07T01:23:27;8.23;;;4.00;;
15153;SDS011;7677;41.896;25.004;2022-12-07T01:25:55;6.57;;;3.80;;
15153;SDS011;7677;41.896;25.004;2022-12-07T01:28:23;5.53;;;3.90;;
15153;SDS011;7677;41.896;25.004;2022-12-07T01:30:57;6.43;;;3.80;;
15153;SDS011;7677;41.896;25.004;2022-12-07T01:33:26;7.27;;;4.13;;
15153;SDS011;7677;41.896;25.004;2022-12-07T01:36:01;5.50;;;3.97;;
15153;SDS011;7677;41.896;25.004;2022-12-07T01:38:29;6.80;;;3.43;;
15153;SDS011;7677;41.896;25.004;2022-12-07T01:40:58;4.17;;;2.87;;
15153;SDS011;7677;41.896;25.004;2022-12-07T01:43:28;6.50;;;2.97;;
15153;SDS011;7677;41.896;25.004;2022-12-07T01:45:56;4.87;;;3.53;;
15153;SDS011;7677;41.896;25.004;2022-12-07T01:48:25;6.80;;;3.33;;
15153;SDS011;7677;41.896;25.004;2022-12-07T01:50:54;6.03;;;3.80;;
15153;SDS011;7677;41.896;25.004;2022-12-07T01:53:24;5.83;;;4.20;;
15153;SDS011;7677;41.896;25.004;2022-12-07T01:55:53;7.67;;;3.77;;
15153;SDS011;7677;41.896;25.004;2022-12-07T01:58:21;8.20;;;4.03;;
15153;SDS011;7677;41.896;25.004;2022-12-07T02:00:49;8.13;;;3.83;;
15153;SDS011;7677;41.896;25.004;2022-12-07T02:03:18;7.03;;;2.87;;
15153;SDS011;7677;41.896;25.004;2022-12-07T02:05:49;6.83;;;3.93;;
15153;SDS011;7677;41.896;25.004;2022-12-07T02:08:16;11.87;;;4.43;;
15153;SDS011;7677;41.896;25.004;2022-12-07T02:10:45;9.00;;;4.00;;
15153;SDS011;7677;41.896;25.004;2022-12-07T02:13:13;6.23;;;3.70;;
15153;SDS011;7677;41.896;25.004;2022-12-07T02:15:45;6.90;;;4.37;;
15153;SDS011;7677;41.896;25.004;2022-12-07T02:18:20;5.93;;;3.70;;
15153;SDS011;7677;41.896;25.004;2022-12-07T02:20:54;6.57;;;3.80;;
15153;SDS011;7677;41.896;25.004;2022-12-07T02:29:18;5.60;;;3.40;;
15153;SDS011;7677;41.896;25.004;2022-12-07T02:31:50;7.10;;;3.93;;
15153;SDS011;7677;41.896;25.004;2022-12-07T02:34:24;7.87;;;3.90;;
15153;SDS011;7677;41.896;25.004;2022-12-07T02:37:00;6.57;;;3.63;;
15153;SDS011;7677;41.896;25.004;2022-12-07T02:39:31;9.43;;;4.60;;
15153;SDS011;7677;41.896;25.004;2022-12-07T02:42:06;6.17;;;3.67;;
15153;SDS011;7677;41.896;25.004;2022-12-07T02:44:39;8.27;;;3.63;;
15153;SDS011;7677;41.896;25.004;2022-12-07T02:47:07;7.40;;;3.50;;
15153;SDS011;7677;41.896;25.004;2022-12-07T02:49:36;4.93;;;3.67;;
15153;SDS011;7677;41.896;25.004;2022-12-07T02:52:05;8.57;;;3.53;;
15153;SDS011;7677;41.896;25.004;2022-12-07T02:54:33;6.40;;;3.37;;
15153;SDS011;7677;41.896;25.004;2022-12-07T02:57:01;6.50;;;4.10;;
15153;SDS011;7677;41.896;25.004;2022-12-07T02:59:35;8.93;;;3.90;;
15153;SDS011;7677;41.896;25.004;2022-12-07T03:02:12;4.57;;;3.53;;
15153;SDS011;7677;41.896;25.004;2022-12-07T03:04:46;5.70;;;2.97;;
15153;SDS011;7677;41.896;25.004;2022-12-07T03:07:21;7.10;;;5.07;;
15153;SDS011;7677;41.896;25.004;2022-12-07T03:09:56;7.63;;;2.93;;
15153;SDS011;7677;41.896;25.004;2022-12-07T03:12:28;7.63;;;3.97;;
15153;SDS011;7677;41.896;25.004;2022-12-07T03:15:00;3.30;;;3.00;;
15153;SDS011;7677;41.896;25.004;2022-12-07T03:17:31;6.77;;;3.77;;
15153;SDS011;7677;41.896;25.004;2022-12-07T03:20:01;9.40;;;3.47;;
15153;SDS011;7677;41.896;25.004;2022-12-07T03:22:31;10.03;;;3.20;;
15153;SDS011;7677;41.896;25.004;2022-12-07T03:25:00;8.03;;;3.80;;
15153;SDS011;7677;41.896;25.004;2022-12-07T03:27:31;4.73;;;3.17;;
15153;SDS011;7677;41.896;25.004;2022-12-07T03:30:02;8.07;;;3.57;;
15153;SDS011;7677;41.896;25.004;2022-12-07T03:32:32;4.47;;;3.40;;
15153;SDS011;7677;41.896;25.004;2022-12-07T03:35:03;7.40;;;3.67;;
15153;SDS011;7677;41.896;25.004;2022-12-07T03:37:33;7.47;;;3.77;;
15153;SDS011;7677;41.896;25.004;2022-12-07T03:40:03;9.83;;;3.80;;
15153;SDS011;7677;41.896;25.004;2022-12-07T03:42:37;5.23;;;3.97;;
15153;SDS011;7677;41.896;25.004;2022-12-07T03:45:06;4.57;;;3.17;;
15153;SDS011;7677;41.896;25.004;2022-12-07T03:47:34;6.37;;;3.87;;
15153;SDS011;7677;41.896;25.004;2022-12-07T03:50:07;6.20;;;3.53;;
15153;SDS011;7677;41.896;25.004;2022-12-07T03:52:40;6.70;;;3.33;;
15153;SDS011;7677;41.896;25.004;2022-12-07T03:55:09;8.53;;;4.43;;
15153;SDS011;7677;41.896;25.004;2022-12-07T03:57:40;8.27;;;3.77;;
15153;SDS011;7677;41.896;25.004;2022-12-07T04:00:10;10.43;;;4.10;;
15153;SDS011;7677;41.896;25.004;2022-12-07T04:02:39;10.03;;;4.33;;
15153;SDS011;7677;41.896;25.004;2022-12-07T04:05:07;10.53;;;4.70;;
15153;SDS011;7677;41.896;25.004;2022-12-07T04:07:36;4.20;;;3.47;;
15153;SDS011;7677;41.896;25.004;2022-12-07T04:10:04;9.77;;;3.87;;
15153;SDS011;7677;41.896;25.004;2022-12-07T04:12:32;7.90;;;4.17;;
15153;SDS011;7677;41.896;25.004;2022-12-07T04:14:59;7.73;;;4.33;;
15153;SDS011;7677;41.896;25.004;2022-12-07T04:17:27;6.57;;;3.70;;
15153;SDS011;7677;41.896;25.004;2022-12-07T04:19:54;8.90;;;3.67;;
15153;SDS011;7677;41.896;25.004;2022-12-07T04:22:22;10.23;;;4.67;;
15153;SDS011;7677;41.896;25.004;2022-12-07T04:24:49;10.33;;;4.20;;
15153;SDS011;7677;41.896;25.004;2022-12-07T04:27:16;10.73;;;4.80;;
15153;SDS011;7677;41.896;25.004;2022-12-07T04:29:43;9.70;;;4.67;;
15153;SDS011;7677;41.896;25.004;2022-12-07T04:32:10;6.40;;;4.20;;
15153;SDS011;7677;41.896;25.004;2022-12-07T04:34:39;8.73;;;4.07;;
15153;SDS011;7677;41.896;25.004;2022-12-07T04:37:06;6.33;;;3.30;;
15153;SDS011;7677;41.896;25.004;2022-12-07T04:39:33;7.77;;;4.27;;
15153;SDS011;7677;41.896;25.004;2022-12-07T04:42:01;5.63;;;3.40;;
15153;SDS011;7677;41.896;25.004;2022-12-07T04:44:29;5.43;;;3.27;;
15153;SDS011;7677;41.896;25.004;2022-12-07T04:46:56;6.00;;;3.50;;
15153;SDS011;7677;41.896;25.004;2022-12-07T04:49:24;6.00;;;3.40;;
15153;SDS011;7677;41.896;25.004;2022-12-07T04:51:55;6.37;;;3.77;;
15153;SDS011;7677;41.896;25.004;2022-12-07T04:54:22;5.43;;;3.63;;
15153;SDS011;7677;41.896;25.004;2022-12-07T04:56:49;8.40;;;4.50;;
15153;SDS011;7677;41.896;25.004;2022-12-07T04:59:17;7.53;;;4.17;;
15153;SDS011;7677;41.896;25.004;2022-12-07T05:01:44;9.83;;;3.93;;
15153;SDS011;7677;41.896;25.004;2022-12-07T05:04:12;7.13;;;4.63;;
15153;SDS011;7677;41.896;25.004;2022-12-07T05:06:41;6.77;;;3.70;;
15153;SDS011;7677;41.896;25.004;2022-12-07T05:09:09;10.13;;;4.40;;
15153;SDS011;7677;41.896;25.004;2022-12-07T05:11:37;7.70;;;4.23;;
15153;SDS011;7677;41.896;25.004;2022-12-07T05:14:08;7.17;;;3.73;;
15153;SDS011;7677;41.896;25.004;2022-12-07T05:16:38;9.37;;;4.97;;
15153;SDS011;7677;41.896;25.004;2022-12-07T05:19:05;6.23;;;3.27;;
15153;SDS011;7677;41.896;25.004;2022-12-07T05:21:33;4.70;;;2.83;;
15153;SDS011;7677;41.896;25.004;2022-12-07T05:24:00;5.47;;;3.57;;
15153;SDS011;7677;41.896;25.004;2022-12-07T05:26:29;7.73;;;3.83;;
15153;SDS011;7677;41.896;25.004;2022-12-07T05:28:57;9.40;;;3.43;;
15153;SDS011;7677;41.896;25.004;2022-12-07T05:31:25;7.53;;;4.17;;
15153;SDS011;7677;41.896;25.004;2022-12-07T05:33:53;7.60;;;3.80;;
15153;SDS011;7677;41.896;25.004;2022-12-07T05:36:20;7.10;;;3.43;;
15153;SDS011;7677;41.896;25.004;2022-12-07T05:38:47;7.80;;;4.00;;
15153;SDS011;7677;41.896;25.004;2022-12-07T05:41:16;9.10;;;3.73;;
15153;SDS011;7677;41.896;25.004;2022-12-07T05:44:03;8.50;;;4.63;;
15153;SDS011;7677;41.896;25.004;2022-12-07T05:46:30;4.50;;;3.00;;
15153;SDS011;7677;41.896;25.004;2022-12-07T05:48:57;5.80;;;3.97;;
15153;SDS011;7677;41.896;25.004;2022-12-07T05:51:25;8.33;;;3.37;;
15153;SDS011;7677;41.896;25.004;2022-12-07T05:53:52;5.57;;;3.90;;
15153;SDS011;7677;41.896;25.004;2022-12-07T05:56:19;9.87;;;4.03;;
15153;SDS011;7677;41.896;25.004;2022-12-07T05:58:46;8.87;;;3.80;;
15153;SDS011;7677;41.896;25.004;2022-12-07T06:01:32;4.63;;;3.60;;
15153;SDS011;7677;41.896;25.004;2022-12-07T06:03:59;6.50;;;3.90;;
15153;SDS011;7677;41.896;25.004;2022-12-07T06:06:27;8.20;;;4.57;;
15153;SDS011;7677;41.896;25.004;2022-12-07T06:08:54;29.17;;;15.53;;
15153;SDS011;7677;41.896;25.004;2022-12-07T06:11:22;20.43;;;11.13;;
15153;SDS011;7677;41.896;25.004;2022-12-07T06:14:06;10.67;;;5.80;;
15153;SDS011;7677;41.896;25.004;2022-12-07T06:16:35;9.27;;;4.43;;
15153;SDS011;7677;41.896;25.004;2022-12-07T06:19:02;10.57;;;3.93;;
15153;SDS011;7677;41.896;25.004;2022-12-07T06:21:29;5.60;;;3.43;;
15153;SDS011;7677;41.896;25.004;2022-12-07T06:23:56;9.30;;;3.90;;
15153;SDS011;7677;41.896;25.004;2022-12-07T06:26:23;3.83;;;3.07;;
15153;SDS011;7677;41.896;25.004;2022-12-07T06:28:50;6.80;;;4.27;;
15153;SDS011;7677;41.896;25.004;2022-12-07T06:31:18;3.90;;;3.43;;
15153;SDS011;7677;41.896;25.004;2022-12-07T06:33:46;8.57;;;4.40;;
15153;SDS011;7677;41.896;25.004;2022-12-07T06:36:13;7.23;;;3.50;;
15153;SDS011;7677;41.896;25.004;2022-12-07T06:38:41;6.57;;;3.60;;
15153;SDS011;7677;41.896;25.004;2022-12-07T06:41:08;5.67;;;3.50;;
15153;SDS011;7677;41.896;25.004;2022-12-07T06:43:35;5.60;;;3.50;;
15153;SDS011;7677;41.896;25.004;2022-12-07T06:46:03;12.63;;;4.30;;
15153;SDS011;7677;41.896;25.004;2022-12-07T06:48:30;5.70;;;3.43;;
15153;SDS011;7677;41.896;25.004;2022-12-07T06:50:59;5.33;;;3.57;;
15153;SDS011;7677;41.896;25.004;2022-12-07T06:53:26;6.17;;;3.30;;
15153;SDS011;7677;41.896;25.004;2022-12-07T06:55:53;5.63;;;3.30;;
15153;SDS011;7677;41.896;25.004;2022-12-07T06:58:21;5.23;;;3.40;;
15153;SDS011;7677;41.896;25.004;2022-12-07T07:00:48;6.57;;;4.10;;
15153;SDS011;7677;41.896;25.004;2022-12-07T07:03:16;16.60;;;7.70;;
15153;SDS011;7677;41.896;25.004;2022-12-07T07:05:43;17.23;;;9.33;;
15153;SDS011;7677;41.896;25.004;2022-12-07T07:08:12;15.37;;;9.33;;
15153;SDS011;7677;41.896;25.004;2022-12-07T07:10:39;10.27;;;6.20;;
15153;SDS011;7677;41.896;25.004;2022-12-07T07:13:07;11.57;;;7.13;;
15153;SDS011;7677;41.896;25.004;2022-12-07T07:15:34;7.37;;;3.87;;
15153;SDS011;7677;41.896;25.004;2022-12-07T07:18:03;6.17;;;4.47;;
15153;SDS011;7677;41.896;25.004;2022-12-07T07:20:31;6.97;;;4.03;;
15153;SDS011;7677;41.896;25.004;2022-12-07T07:22:58;5.53;;;4.23;;
15153;SDS011;7677;41.896;25.004;2022-12-07T07:25:26;7.97;;;4.27;;
15153;SDS011;7677;41.896;25.004;2022-12-07T07:27:54;6.60;;;3.63;;
15153;SDS011;7677;41.896;25.004;2022-12-07T07:30:22;6.27;;;3.63;;
15153;SDS011;7677;41.896;25.004;2022-12-07T07:32:49;8.27;;;4.13;;
15153;SDS011;7677;41.896;25.004;2022-12-07T07:35:17;8.90;;;4.50;;
15153;SDS011;7677;41.896;25.004;2022-12-07T07:37:44;10.17;;;3.77;;
15153;SDS011;7677;41.896;25.004;2022-12-07T07:40:11;7.30;;;4.23;;
15153;SDS011;7677;41.896;25.004;2022-12-07T07:42:40;6.90;;;5.20;;
15153;SDS011;7677;41.896;25.004;2022-12-07T07:45:07;6.90;;;4.10;;
15153;SDS011;7677;41.896;25.004;2022-12-07T07:47:35;10.80;;;4.63;;
15153;SDS011;7677;41.896;25.004;2022-12-07T07:50:03;7.07;;;4.70;;
15153;SDS011;7677;41.896;25.004;2022-12-07T07:52:32;19.00;;;9.40;;
15153;SDS011;7677;41.896;25.004;2022-12-07T07:54:59;13.40;;;6.73;;
15153;SDS011;7677;41.896;25.004;2022-12-07T07:57:26;16.17;;;6.43;;
15153;SDS011;7677;41.896;25.004;2022-12-07T07:59:55;29.30;;;12.80;;
15153;SDS011;7677;41.896;25.004;2022-12-07T08:02:22;21.47;;;10.93;;
15153;SDS011;7677;41.896;25.004;2022-12-07T08:04:50;15.17;;;9.83;;
15153;SDS011;7677;41.896;25.004;2022-12-07T08:07:17;11.73;;;7.80;;
15153;SDS011;7677;41.896;25.004;2022-12-07T08:09:44;17.90;;;8.83;;
15153;SDS011;7677;41.896;25.004;2022-12-07T08:12:12;14.90;;;8.17;;
15153;SDS011;7677;41.896;25.004;2022-12-07T08:14:40;17.67;;;8.27;;
15153;SDS011;7677;41.896;25.004;2022-12-07T08:17:08;19.03;;;10.90;;
15153;SDS011;7677;41.896;25.004;2022-12-07T08:19:36;18.63;;;10.77;;
15153;SDS011;7677;41.896;25.004;2022-12-07T08:22:03;19.27;;;9.20;;
15153;SDS011;7677;41.896;25.004;2022-12-07T08:24:32;14.30;;;9.20;;
15153;SDS011;7677;41.896;25.004;2022-12-07T08:26:59;21.77;;;7.23;;
15153;SDS011;7677;41.896;25.004;2022-12-07T08:29:27;11.63;;;6.67;;
15153;SDS011;7677;41.896;25.004;2022-12-07T08:31:54;13.37;;;6.57;;
15153;SDS011;7677;41.896;25.004;2022-12-07T08:34:22;10.57;;;6.83;;
15153;SDS011;7677;41.896;25.004;2022-12-07T08:36:49;14.87;;;7.27;;
15153;SDS011;7677;41.896;25.004;2022-12-07T08:39:17;12.37;;;6.80;;
15153;SDS011;7677;41.896;25.004;2022-12-07T08:41:44;12.63;;;5.83;;
15153;SDS011;7677;41.896;25.004;2022-12-07T08:44:11;11.97;;;6.17;;
15153;SDS011;7677;41.896;25.004;2022-12-07T08:46:39;12.10;;;6.23;;
15153;SDS011;7677;41.896;25.004;2022-12-07T08:49:09;9.17;;;5.50;;
15153;SDS011;7677;41.896;25.004;2022-12-07T08:51:41;13.60;;;6.57;;
15153;SDS011;7677;41.896;25.004;2022-12-07T08:54:09;11.00;;;5.77;;
15153;SDS011;7677;41.896;25.004;2022-12-07T08:56:38;12.13;;;6.60;;
15153;SDS011;7677;41.896;25.004;2022-12-07T08:59:06;15.13;;;6.03;;
15153;SDS011;7677;41.896;25.004;2022-12-07T09:01:34;12.67;;;6.33;;
15153;SDS011;7677;41.896;25.004;2022-12-07T09:04:01;12.20;;;6.90;;
15153;SDS011;7677;41.896;25.004;2022-12-07T09:06:28;15.43;;;7.87;;
15153;SDS011;7677;41.896;25.004;2022-12-07T09:08:57;13.03;;;6.73;;
15153;SDS011;7677;41.896;25.004;2022-12-07T09:11:25;12.60;;;6.87;;
15153;SDS011;7677;41.896;25.004;2022-12-07T09:13:53;10.83;;;5.80;;
15153;SDS011;7677;41.896;25.004;2022-12-07T09:16:20;17.20;;;6.80;;
15153;SDS011;7677;41.896;25.004;2022-12-07T09:18:47;12.47;;;7.37;;
15153;SDS011;7677;41.896;25.004;2022-12-07T09:21:14;20.57;;;11.17;;
15153;SDS011;7677;41.896;25.004;2022-12-07T09:23:42;14.07;;;8.33;;
15153;SDS011;7677;41.896;25.004;2022-12-07T09:26:10;14.17;;;7.07;;
15153;SDS011;7677;41.896;25.004;2022-12-07T09:28:38;12.87;;;6.97;;
15153;SDS011;7677;41.896;25.004;2022-12-07T09:31:05;15.37;;;6.80;;
15153;SDS011;7677;41.896;25.004;2022-12-07T09:33:33;11.77;;;6.67;;
15153;SDS011;7677;41.896;25.004;2022-12-07T09:36:00;11.67;;;6.37;;
15153;SDS011;7677;41.896;25.004;2022-12-07T09:38:27;14.13;;;7.13;;
15153;SDS011;7677;41.896;25.004;2022-12-07T09:40:56;14.27;;;6.57;;
15153;SDS011;7677;41.896;25.004;2022-12-07T09:43:26;11.17;;;6.73;;
15153;SDS011;7677;41.896;25.004;2022-12-07T09:45:54;14.97;;;8.03;;
15153;SDS011;7677;41.896;25.004;2022-12-07T09:48:23;11.27;;;6.57;;
15153;SDS011;7677;41.896;25.004;2022-12-07T09:50:55;22.23;;;9.40;;
15153;SDS011;7677;41.896;25.004;2022-12-07T09:53:24;15.73;;;8.27;;
15153;SDS011;7677;41.896;25.004;2022-12-07T09:55:54;19.07;;;8.83;;
15153;SDS011;7677;41.896;25.004;2022-12-07T09:58:22;14.20;;;7.97;;
15153;SDS011;7677;41.896;25.004;2022-12-07T10:00:53;12.60;;;7.10;;
15153;SDS011;7677;41.896;25.004;2022-12-07T10:03:23;15.48;;;10.38;;
15153;SDS011;7677;41.896;25.004;2022-12-07T10:05:50;13.23;;;8.27;;
15153;SDS011;7677;41.896;25.004;2022-12-07T10:08:18;16.87;;;8.03;;
15153;SDS011;7677;41.896;25.004;2022-12-07T10:10:48;12.87;;;7.23;;
15153;SDS011;7677;41.896;25.004;2022-12-07T10:13:18;15.37;;;7.47;;
15153;SDS011;7677;41.896;25.004;2022-12-07T10:15:48;13.77;;;6.00;;
15153;SDS011;7677;41.896;25.004;2022-12-07T10:21:10;18.07;;;7.00;;
15153;SDS011;7677;41.896;25.004;2022-12-07T10:23:40;20.47;;;6.73;;
15153;SDS011;7677;41.896;25.004;2022-12-07T10:26:26;12.00;;;6.00;;
15153;SDS011;7677;41.896;25.004;2022-12-07T10:28:55;9.47;;;6.03;;
15153;SDS011;7677;41.896;25.004;2022-12-07T10:31:23;14.40;;;6.63;;
15153;SDS011;7677;41.896;25.004;2022-12-07T10:33:52;12.03;;;6.97;;
15153;SDS011;7677;41.896;25.004;2022-12-07T10:36:22;11.93;;;7.17;;
15153;SDS011;7677;41.896;25.004;2022-12-07T10:38:51;12.60;;;8.13;;
15153;SDS011;7677;41.896;25.004;2022-12-07T10:41:25;14.57;;;9.00;;
15153;SDS011;7677;41.896;25.004;2022-12-07T10:43:53;16.30;;;9.50;;
15153;SDS011;7677;41.896;25.004;2022-12-07T10:46:26;17.10;;;7.47;;
15153;SDS011;7677;41.896;25.004;2022-12-07T10:49:03;14.23;;;6.67;;
15153;SDS011;7677;41.896;25.004;2022-12-07T10:51:40;10.80;;;5.67;;
15153;SDS011;7677;41.896;25.004;2022-12-07T10:54:12;11.57;;;6.10;;
15153;SDS011;7677;41.896;25.004;2022-12-07T10:57:02;12.30;;;6.70;;
15153;SDS011;7677;41.896;25.004;2022-12-07T11:02:23;14.97;;;7.47;;
15153;SDS011;7677;41.896;25.004;2022-12-07T11:04:58;11.43;;;6.67;;
15153;SDS011;7677;41.896;25.004;2022-12-07T11:07:33;9.53;;;7.00;;
15153;SDS011;7677;41.896;25.004;2022-12-07T11:10:08;12.57;;;7.00;;
15153;SDS011;7677;41.896;25.004;2022-12-07T11:12:44;13.43;;;7.33;;
15153;SDS011;7677;41.896;25.004;2022-12-07T11:15:17;13.40;;;7.10;;
15153;SDS011;7677;41.896;25.004;2022-12-07T11:17:51;16.50;;;6.73;;
15153;SDS011;7677;41.896;25.004;2022-12-07T11:20:32;18.37;;;6.80;;
15153;SDS011;7677;41.896;25.004;2022-12-07T11:23:04;12.73;;;6.77;;
15153;SDS011;7677;41.896;25.004;2022-12-07T11:25:42;12.43;;;6.37;;
15153;SDS011;7677;41.896;25.004;2022-12-07T11:28:16;10.73;;;6.60;;
15153;SDS011;7677;41.896;25.004;2022-12-07T11:30:52;12.87;;;6.23;;
15153;SDS011;7677;41.896;25.004;2022-12-07T11:33:26;10.40;;;6.10;;
15153;SDS011;7677;41.896;25.004;2022-12-07T11:36:04;12.17;;;7.23;;
15153;SDS011;7677;41.896;25.004;2022-12-07T11:38:38;12.57;;;6.87;;
15153;SDS011;7677;41.896;25.004;2022-12-07T11:41:09;10.80;;;6.03;;
15153;SDS011;7677;41.896;25.004;2022-12-07T11:43:50;11.83;;;7.07;;
15153;SDS011;7677;41.896;25.004;2022-12-07T11:46:20;13.17;;;6.50;;
15153;SDS011;7677;41.896;25.004;2022-12-07T11:48:53;16.87;;;8.30;;
15153;SDS011;7677;41.896;25.004;2022-12-07T11:51:25;14.67;;;7.47;;
15153;SDS011;7677;41.896;25.004;2022-12-07T11:53:57;14.67;;;7.53;;
15153;SDS011;7677;41.896;25.004;2022-12-07T11:56:27;12.10;;;7.57;;
15153;SDS011;7677;41.896;25.004;2022-12-07T11:58:56;14.93;;;8.57;;
15153;SDS011;7677;41.896;25.004;2022-12-07T12:01:29;19.63;;;8.00;;
15153;SDS011;7677;41.896;25.004;2022-12-07T12:04:04;14.50;;;6.83;;
15153;SDS011;7677;41.896;25.004;2022-12-07T12:06:35;10.73;;;6.83;;
15153;SDS011;7677;41.896;25.004;2022-12-07T12:09:04;9.87;;;6.47;;
15153;SDS011;7677;41.896;25.004;2022-12-07T12:11:43;21.00;;;8.30;;
15153;SDS011;7677;41.896;25.004;2022-12-07T12:14:22;13.33;;;7.83;;
15153;SDS011;7677;41.896;25.004;2022-12-07T12:17:13;12.13;;;7.77;;
15153;SDS011;7677;41.896;25.004;2022-12-07T12:20:01;13.17;;;8.20;;
15153;SDS011;7677;41.896;25.004;2022-12-07T12:22:34;16.27;;;8.10;;
15153;SDS011;7677;41.896;25.004;2022-12-07T12:25:04;15.80;;;7.53;;
15153;SDS011;7677;41.896;25.004;2022-12-07T12:27:33;13.33;;;8.47;;
15153;SDS011;7677;41.896;25.004;2022-12-07T12:30:03;13.23;;;6.70;;
15153;SDS011;7677;41.896;25.004;2022-12-07T12:32:37;12.83;;;6.67;;
15153;SDS011;7677;41.896;25.004;2022-12-07T12:35:27;11.80;;;6.30;;
15153;SDS011;7677;41.896;25.004;2022-12-07T12:41:00;15.67;;;9.03;;
15153;SDS011;7677;41.896;25.004;2022-12-07T12:43:41;13.17;;;7.50;;
15153;SDS011;7677;41.896;25.004;2022-12-07T12:49:32;11.97;;;7.17;;
15153;SDS011;7677;41.896;25.004;2022-12-07T12:52:01;10.50;;;7.13;;
15153;SDS011;7677;41.896;25.004;2022-12-07T12:55:15;13.60;;;8.40;;
15153;SDS011;7677;41.896;25.004;2022-12-07T12:57:46;17.87;;;8.97;;
15153;SDS011;7677;41.896;25.004;2022-12-07T13:00:18;19.10;;;9.43;;
15153;SDS011;7677;41.896;25.004;2022-12-07T13:02:48;21.00;;;8.13;;
15153;SDS011;7677;41.896;25.004;2022-12-07T13:05:17;14.90;;;9.47;;
15153;SDS011;7677;41.896;25.004;2022-12-07T13:07:56;20.20;;;9.23;;
15153;SDS011;7677;41.896;25.004;2022-12-07T13:13:28;17.33;;;9.17;;
15153;SDS011;7677;41.896;25.004;2022-12-07T13:22:37;19.47;;;8.80;;
15153;SDS011;7677;41.896;25.004;2022-12-07T13:25:09;20.67;;;10.73;;
15153;SDS011;7677;41.896;25.004;2022-12-07T13:27:40;17.20;;;11.17;;
15153;SDS011;7677;41.896;25.004;2022-12-07T13:30:12;17.50;;;9.13;;
15153;SDS011;7677;41.896;25.004;2022-12-07T13:32:40;15.97;;;8.93;;
15153;SDS011;7677;41.896;25.004;2022-12-07T13:35:27;15.40;;;8.73;;
15153;SDS011;7677;41.896;25.004;2022-12-07T13:37:56;15.37;;;8.67;;
15153;SDS011;7677;41.896;25.004;2022-12-07T13:40:23;16.33;;;8.00;;
15153;SDS011;7677;41.896;25.004;2022-12-07T13:42:58;15.77;;;9.00;;
15153;SDS011;7677;41.896;25.004;2022-12-07T13:45:26;17.63;;;8.67;;
15153;SDS011;7677;41.896;25.004;2022-12-07T13:48:08;15.40;;;9.17;;
15153;SDS011;7677;41.896;25.004;2022-12-07T13:50:40;14.47;;;9.00;;
15153;SDS011;7677;41.896;25.004;2022-12-07T13:53:11;13.33;;;6.70;;
15153;SDS011;7677;41.896;25.004;2022-12-07T13:55:44;18.47;;;9.60;;
15153;SDS011;7677;41.896;25.004;2022-12-07T13:58:13;13.13;;;7.83;;
15153;SDS011;7677;41.896;25.004;2022-12-07T14:00:41;13.43;;;8.00;;
15153;SDS011;7677;41.896;25.004;2022-12-07T14:03:24;11.83;;;6.70;;
15153;SDS011;7677;41.896;25.004;2022-12-07T14:06:03;9.83;;;6.33;;
15153;SDS011;7677;41.896;25.004;2022-12-07T14:08:35;10.73;;;6.67;;
15153;SDS011;7677;41.896;25.004;2022-12-07T14:11:02;17.87;;;7.47;;
15153;SDS011;7677;41.896;25.004;2022-12-07T14:13:32;9.87;;;6.77;;
15153;SDS011;7677;41.896;25.004;2022-12-07T14:16:00;13.43;;;7.30;;
15153;SDS011;7677;41.896;25.004;2022-12-07T14:18:29;14.90;;;7.53;;
15153;SDS011;7677;41.896;25.004;2022-12-07T14:21:03;12.80;;;7.17;;
15153;SDS011;7677;41.896;25.004;2022-12-07T14:23:31;14.90;;;6.53;;
15153;SDS011;7677;41.896;25.004;2022-12-07T14:26:06;9.20;;;5.53;;
15153;SDS011;7677;41.896;25.004;2022-12-07T14:28:36;12.77;;;6.40;;
15153;SDS011;7677;41.896;25.004;2022-12-07T14:31:07;11.90;;;6.93;;
15153;SDS011;7677;41.896;25.004;2022-12-07T14:33:38;11.93;;;6.33;;
15153;SDS011;7677;41.896;25.004;2022-12-07T14:36:06;13.80;;;6.53;;
15153;SDS011;7677;41.896;25.004;2022-12-07T14:38:35;14.70;;;6.63;;
15153;SDS011;7677;41.896;25.004;2022-12-07T14:41:02;11.10;;;6.00;;
15153;SDS011;7677;41.896;25.004;2022-12-07T14:43:49;9.77;;;6.10;;
15153;SDS011;7677;41.896;25.004;2022-12-07T14:46:16;12.10;;;6.33;;
15153;SDS011;7677;41.896;25.004;2022-12-07T14:48:43;16.30;;;6.50;;
15153;SDS011;7677;41.896;25.004;2022-12-07T14:51:10;10.53;;;5.70;;
15153;SDS011;7677;41.896;25.004;2022-12-07T14:53:40;11.63;;;5.73;;
15153;SDS011;7677;41.896;25.004;2022-12-07T14:56:08;13.53;;;6.10;;
15153;SDS011;7677;41.896;25.004;2022-12-07T14:58:35;10.27;;;5.70;;
15153;SDS011;7677;41.896;25.004;2022-12-07T15:01:04;12.00;;;6.87;;
15153;SDS011;7677;41.896;25.004;2022-12-07T15:03:31;13.47;;;7.37;;
15153;SDS011;7677;41.896;25.004;2022-12-07T15:05:59;9.00;;;6.13;;
15153;SDS011;7677;41.896;25.004;2022-12-07T15:08:27;9.17;;;5.23;;
15153;SDS011;7677;41.896;25.004;2022-12-07T15:10:54;11.13;;;5.93;;
15153;SDS011;7677;41.896;25.004;2022-12-07T15:13:21;8.80;;;5.80;;
15153;SDS011;7677;41.896;25.004;2022-12-07T15:16:09;11.90;;;6.30;;
15153;SDS011;7677;41.896;25.004;2022-12-07T15:18:37;13.70;;;6.60;;
15153;SDS011;7677;41.896;25.004;2022-12-07T15:21:04;13.27;;;6.77;;
15153;SDS011;7677;41.896;25.004;2022-12-07T15:23:31;15.60;;;6.90;;
15153;SDS011;7677;41.896;25.004;2022-12-07T15:25:59;12.17;;;5.83;;